Flight Track Log - Related Links

Times and Time Zones

All times are in EDT time to prevent confusion due to time zone crossing. See the ASQ5337 flight status page for this flight to view local times or setup timezone preferences in your user account.

Time Position Orientation Groundspeed Altitude Reporting Facility
EDT Latitude Longitude Course Direction KTS MPH feet Rate Location/Type
Fri 01:56:26 PM 32.3200 -86.2314 55° Northeast 232 267 5,400  Level Atlanta Center
Fri 01:57:26 PM 32.3358 -86.1628 75° East 227 261 8,100 2,350 Climbing Atlanta Center
Fri 01:58:26 PM 32.3600 -86.0897 69° East 220 253 10,100 1,550 Climbing Atlanta Center
Fri 01:59:26 PM 32.4028 -86.0167 55° Northeast 241 277 11,200 1,050 Climbing Atlanta Center
Fri 02:00:00 PM 32.5627 -85.9512 55° Northeast  Level FlightAware Approximate
Fri 02:00:26 PM 32.4667 -85.9369 46° Northeast 290 334 12,200  Level Atlanta Center
Fri 02:01:00 PM 32.6063 -85.8785 55° Northeast  Level FlightAware Approximate
Fri 02:01:26 PM 32.5347 -85.8522 46° Northeast 320 368 13,200  Level Atlanta Center
Fri 02:02:26 PM 32.6028 -85.7647 47° Northeast 346 398 14,600 1,450 Climbing Atlanta Center
Fri 02:03:26 PM 32.6750 -85.6800 45° Northeast 358 412 16,100 1,200 Climbing Atlanta Center
Fri 02:04:26 PM 32.7472 -85.5897 46° Northeast 363 418 17,000 400 Climbing Atlanta Center
Fri 02:05:26 PM 32.8192 -85.4972 47° Northeast 375 432 16,900 -50 Descending Atlanta Center
Fri 02:06:26 PM 32.8911 -85.4069 46° Northeast 375 432 16,900  Level Atlanta Center
Fri 02:07:26 PM 32.9653 -85.3139 46° Northeast 370 426 16,900  Level Atlanta Center
Fri 02:08:26 PM 33.0372 -85.2233 47° Northeast 370 426 16,900 -300 Level Atlanta Center
Fri 02:09:26 PM 33.1153 -85.1275 46° Northeast 363 418 16,300 -1,450 Descending Atlanta Center
Fri 02:10:26 PM 33.1850 -85.0342 48° Northeast 372 428 14,000 -1,400 Descending Atlanta Center
Fri 02:11:26 PM 33.2544 -84.9406 48° Northeast 372 428 13,500 -950 Descending Atlanta Center
Fri 02:12:26 PM 33.3197 -84.8542 48° Northeast 367 422 12,100 -750 Descending Atlanta Center
Fri 02:13:26 PM 33.3850 -84.7653 49° Northeast 356 410 12,000 -50 Descending Atlanta Center
Fri 02:14:26 PM 33.4503 -84.6786 48° Northeast 356 410 12,000  Level Atlanta Center
Fri 02:15:26 PM 33.5133 -84.5919 49° Northeast 349 402 12,000 -50 Level Atlanta Center
Fri 02:16:26 PM 33.5428 -84.5197 64° Northeast 305 351 11,900 -1,350 Descending Atlanta Center
Fri 02:17:26 PM 33.5431 -84.4400 90° East 230 265 9,300 -2,739 Descending Atlanta Center
Fri 02:18:44 PM 33.5500 -84.3333 86° East 222 255 5,600 -2,364 Descending Atlanta TRACON
Fri 02:19:38 PM 33.5500 -84.2667 90° East 225 259 4,100 -842 Descending Atlanta TRACON
Fri 02:20:38 PM 33.5500 -84.2000 90° East 225 259 4,000 -500 Descending Atlanta TRACON
Fri 02:21:38 PM 33.5833 -84.1500 51° Northeast 235 270 3,100 -526 Descending Atlanta TRACON
Fri 02:22:32 PM 33.6000 -84.1833 301° West 208 239 3,000 -53 Descending Atlanta TRACON
Fri 02:23:32 PM 33.6167 -84.2500 287° West 192 221 3,000 -100 Level Atlanta TRACON
Fri 02:24:32 PM 33.6167 -84.3167 270° West 200 230 2,800 -550 Descending Atlanta TRACON
Fri 02:25:32 PM 33.6167 -84.3667 270° West 162 186 1,900 -900 Descending Atlanta TRACON
Fri 02:27:00 PM 33.6333 -84.4167 301° West  Level FlightAware Approximate
Fri 02:34:00 PM 33.6367 -84.4279 301° West  Level Estimated
Fri 02:35:00 PM 33.6367 -84.4279 301° West  Level Estimated

Login

Don't have an account? Register now (free) for customized features, flight alerts, and more!